createdAt,value
2018-06-23T00:02:09.818Z,8.60
2018-06-23T00:04:37.945Z,8.50
2018-06-23T00:07:06.042Z,8.50
2018-06-23T00:09:34.158Z,8.40
2018-06-23T00:12:02.278Z,8.40
2018-06-23T00:14:30.377Z,8.30
2018-06-23T00:16:58.513Z,8.30
2018-06-23T00:19:26.942Z,8.30
2018-06-23T00:21:55.079Z,8.30
2018-06-23T00:24:23.181Z,8.30
2018-06-23T00:26:51.274Z,8.20
2018-06-23T00:29:19.385Z,8.20
2018-06-23T00:31:47.519Z,8.20
2018-06-23T00:34:15.660Z,8.10
2018-06-23T00:36:43.748Z,8.10
2018-06-23T00:39:11.845Z,8.10
2018-06-23T00:41:39.957Z,8.00
2018-06-23T00:44:08.086Z,8.00
2018-06-23T00:46:36.229Z,8.00
2018-06-23T00:51:32.272Z,7.90
2018-06-23T00:56:28.257Z,7.80
2018-06-23T00:59:07.831Z,7.70
2018-06-23T01:01:35.975Z,7.70
2018-06-23T01:04:04.114Z,7.70
2018-06-23T01:06:32.234Z,7.70
2018-06-23T01:09:00.385Z,7.70
2018-06-23T01:11:28.507Z,7.80
2018-06-23T01:13:56.650Z,7.80
2018-06-23T01:16:24.799Z,7.90
2018-06-23T01:18:52.941Z,8.00
2018-06-23T01:21:21.054Z,8.10
2018-06-23T01:23:49.150Z,8.20
2018-06-23T01:26:17.277Z,8.20
2018-06-23T01:28:45.406Z,8.30
2018-06-23T01:31:13.537Z,8.40
2018-06-23T01:33:41.633Z,8.50
2018-06-23T01:36:09.733Z,8.70
2018-06-23T01:38:37.854Z,8.80
2018-06-23T01:41:06.079Z,8.90
2018-06-23T01:43:34.192Z,9.00
2018-06-23T01:46:02.314Z,9.00
2018-06-23T01:48:30.490Z,9.00
2018-06-23T01:50:59.466Z,9.10
2018-06-23T01:53:27.601Z,9.10
2018-06-23T01:55:55.775Z,9.10
2018-06-23T01:58:23.882Z,9.10
2018-06-23T02:00:52.009Z,9.00
2018-06-23T02:03:20.297Z,9.00
2018-06-23T02:05:48.434Z,8.90
2018-06-23T02:08:16.565Z,8.80
2018-06-23T02:10:44.675Z,8.70
2018-06-23T02:13:12.803Z,8.60
2018-06-23T02:15:46.239Z,8.40
2018-06-23T02:18:19.843Z,8.30
2018-06-23T02:20:53.418Z,8.20
2018-06-23T02:23:27.026Z,8.10
2018-06-23T02:26:00.674Z,8.10
2018-06-23T02:28:34.166Z,8.00
2018-06-23T02:31:07.550Z,7.90
2018-06-23T02:33:41.163Z,7.80
2018-06-23T02:36:09.311Z,7.80
2018-06-23T02:38:37.413Z,7.80
2018-06-23T02:41:05.570Z,7.70
2018-06-23T02:43:33.686Z,7.60
2018-06-23T02:46:01.829Z,7.60
2018-06-23T02:48:29.945Z,7.50
2018-06-23T02:53:25.957Z,7.30
2018-06-23T02:55:54.119Z,7.30
2018-06-23T02:58:22.295Z,7.30
2018-06-23T03:00:50.413Z,7.20
2018-06-23T03:03:18.530Z,7.20
2018-06-23T03:05:46.680Z,7.20
2018-06-23T03:08:14.811Z,7.10
2018-06-23T03:10:42.930Z,7.10
2018-06-23T03:13:11.027Z,7.00
2018-06-23T03:15:39.175Z,7.00
2018-06-23T03:18:07.266Z,7.00
2018-06-23T03:20:35.358Z,7.00
2018-06-23T03:23:03.482Z,6.90
2018-06-23T03:25:31.575Z,7.00
2018-06-23T03:27:59.694Z,7.00
2018-06-23T03:30:27.800Z,7.00
2018-06-23T03:32:55.972Z,6.90
2018-06-23T03:35:24.122Z,6.90
2018-06-23T03:40:20.168Z,7.00
2018-06-23T03:45:16.194Z,7.00
2018-06-23T03:47:44.301Z,6.90
2018-06-23T03:50:12.400Z,6.90
2018-06-23T03:52:40.538Z,7.00
2018-06-23T03:55:08.691Z,7.00
2018-06-23T03:57:36.803Z,7.00
2018-06-23T04:00:04.905Z,7.00
2018-06-23T04:02:33.028Z,7.00
2018-06-23T04:05:01.139Z,7.10
2018-06-23T04:07:29.250Z,7.10
2018-06-23T04:09:57.365Z,7.10
2018-06-23T04:12:25.503Z,7.20
2018-06-23T04:14:53.623Z,7.20
2018-06-23T04:17:21.726Z,7.30
2018-06-23T04:19:49.842Z,7.40
2018-06-23T04:22:17.955Z,7.40
2018-06-23T04:24:46.114Z,7.50
2018-06-23T04:27:14.237Z,7.60
2018-06-23T04:29:42.378Z,7.70
2018-06-23T04:32:10.486Z,7.80
2018-06-23T04:34:38.585Z,7.80
2018-06-23T04:37:06.710Z,7.90
2018-06-23T04:39:34.824Z,8.00
2018-06-23T04:42:02.915Z,8.10
2018-06-23T04:44:31.111Z,8.20
2018-06-23T04:46:59.243Z,8.30
2018-06-23T04:49:27.370Z,8.40
2018-06-23T04:51:55.479Z,8.50
2018-06-23T04:54:23.623Z,8.60
2018-06-23T04:56:52.854Z,8.70
2018-06-23T04:59:20.954Z,8.70
2018-06-23T05:01:49.067Z,8.80
2018-06-23T05:04:17.195Z,8.90
2018-06-23T05:06:45.326Z,9.00
2018-06-23T05:09:13.494Z,9.00
2018-06-23T05:11:41.647Z,9.00
2018-06-23T05:14:09.778Z,9.10
2018-06-23T05:16:37.895Z,9.20
2018-06-23T05:19:06.159Z,9.40
2018-06-23T05:21:34.301Z,9.50
2018-06-23T05:24:02.464Z,9.70
2018-06-23T05:26:30.614Z,9.90
2018-06-23T05:28:58.718Z,10.10
2018-06-23T05:31:26.855Z,10.30
2018-06-23T05:33:54.961Z,10.50
2018-06-23T05:36:23.126Z,10.60
2018-06-23T05:38:51.302Z,10.90
2018-06-23T05:41:19.506Z,11.00
2018-06-23T05:43:47.635Z,11.10
2018-06-23T05:46:15.770Z,11.20
2018-06-23T05:48:43.889Z,11.20
2018-06-23T05:51:12.044Z,11.40
2018-06-23T05:53:40.160Z,11.60
2018-06-23T05:56:08.320Z,11.70
2018-06-23T05:58:36.494Z,11.80
2018-06-23T06:01:04.610Z,11.70
2018-06-23T06:03:32.734Z,11.60
2018-06-23T06:06:00.892Z,11.50
2018-06-23T06:08:29.014Z,11.40
2018-06-23T06:13:25.031Z,11.30
2018-06-23T06:15:54.504Z,11.30
2018-06-23T06:18:22.606Z,11.50
2018-06-23T06:20:50.726Z,11.70
2018-06-23T06:23:18.995Z,11.90
2018-06-23T06:25:47.101Z,12.10
2018-06-23T06:28:16.240Z,12.30
2018-06-23T06:30:44.372Z,12.40
2018-06-23T06:33:12.505Z,12.60
2018-06-23T06:35:40.613Z,12.80
2018-06-23T06:38:08.792Z,13.00
2018-06-23T06:40:36.997Z,13.20
2018-06-23T06:45:33.399Z,13.70
2018-06-23T06:48:01.564Z,14.00
2018-06-23T06:50:29.854Z,14.40
2018-06-23T06:52:58.023Z,14.80
2018-06-23T06:55:26.188Z,15.20
2018-06-23T06:57:54.381Z,15.40
2018-06-23T07:00:22.623Z,15.50
2018-06-23T07:02:50.814Z,15.70
2018-06-23T07:05:19.043Z,16.00
2018-06-23T07:07:47.269Z,16.60
2018-06-23T07:10:15.416Z,16.90
2018-06-23T07:12:43.557Z,17.30
2018-06-23T07:15:14.625Z,17.70
2018-06-23T07:17:42.951Z,18.20
2018-06-23T07:20:11.315Z,18.50
2018-06-23T07:22:39.872Z,19.10
2018-06-23T07:25:08.043Z,19.40
2018-06-23T07:27:36.197Z,19.80
2018-06-23T07:30:05.312Z,20.20
2018-06-23T07:32:33.497Z,20.50
2018-06-23T07:35:01.725Z,20.80
2018-06-23T07:37:29.887Z,21.30
2018-06-23T07:39:58.073Z,21.80
2018-06-23T07:42:26.354Z,22.10
2018-06-23T07:44:54.452Z,22.40
2018-06-23T07:47:22.617Z,22.00
2018-06-23T07:49:50.777Z,21.10
2018-06-23T07:52:18.956Z,20.40
2018-06-23T07:54:47.113Z,20.00
2018-06-23T07:57:15.259Z,19.80
2018-06-23T07:59:43.417Z,19.50
2018-06-23T08:02:11.720Z,19.30
2018-06-23T08:04:39.886Z,19.20
2018-06-23T08:07:08.036Z,19.00
2018-06-23T08:09:36.239Z,18.90
2018-06-23T08:12:04.408Z,18.80
2018-06-23T08:14:32.583Z,18.70
2018-06-23T08:17:00.771Z,19.00
2018-06-23T08:19:28.937Z,19.50
2018-06-23T08:21:57.079Z,20.30
2018-06-23T08:24:25.215Z,20.80
2018-06-23T08:26:53.382Z,20.90
2018-06-23T08:29:21.812Z,20.80
2018-06-23T08:31:50.124Z,20.90
2018-06-23T08:34:18.290Z,20.80
2018-06-23T08:36:46.436Z,20.30
2018-06-23T08:39:14.613Z,20.10
2018-06-23T08:41:42.764Z,20.00
2018-06-23T08:44:11.014Z,20.00
2018-06-23T08:46:39.216Z,19.80
2018-06-23T08:49:07.379Z,19.50
2018-06-23T08:51:35.575Z,19.50
2018-06-23T08:54:03.725Z,19.50
2018-06-23T08:56:31.982Z,19.40
2018-06-23T08:59:00.175Z,19.70
2018-06-23T09:01:28.336Z,20.30
2018-06-23T09:03:56.520Z,21.00
2018-06-23T09:06:24.700Z,21.40
2018-06-23T09:08:52.931Z,22.40
2018-06-23T09:11:21.177Z,23.20
2018-06-23T09:13:49.323Z,23.60
2018-06-23T09:16:17.492Z,23.50
2018-06-23T09:18:47.790Z,23.10
2018-06-23T09:21:16.155Z,22.60
2018-06-23T09:23:44.671Z,22.00
2018-06-23T09:26:12.828Z,21.50
2018-06-23T09:28:41.085Z,20.90
2018-06-23T09:31:09.245Z,20.60
2018-06-23T09:33:37.418Z,20.20
2018-06-23T09:36:05.585Z,19.90
2018-06-23T09:38:33.751Z,19.60
2018-06-23T09:41:01.923Z,19.40
2018-06-23T09:43:30.401Z,19.40
2018-06-23T09:45:58.669Z,19.60
2018-06-23T09:48:26.716Z,19.90
2018-06-23T09:50:54.902Z,20.20
2018-06-23T09:53:23.088Z,20.50
2018-06-23T09:55:51.325Z,20.90
2018-06-23T09:58:19.465Z,21.30
2018-06-23T10:00:47.629Z,21.50
2018-06-23T10:03:15.868Z,21.80
2018-06-23T10:05:43.977Z,22.10
2018-06-23T10:08:12.237Z,22.20
2018-06-23T10:10:40.431Z,22.10
2018-06-23T10:13:08.552Z,22.10
2018-06-23T10:15:36.876Z,22.30
2018-06-23T10:18:05.049Z,22.20
2018-06-23T10:20:33.228Z,22.00
2018-06-23T10:23:01.394Z,22.00
2018-06-23T10:25:29.672Z,21.70
2018-06-23T10:27:57.887Z,21.40
2018-06-23T10:30:26.052Z,21.20
2018-06-23T10:32:54.243Z,21.10
2018-06-23T10:35:22.420Z,21.10
2018-06-23T10:37:50.684Z,21.20
2018-06-23T10:40:18.847Z,21.30
2018-06-23T10:42:47.039Z,21.10
2018-06-23T10:45:15.296Z,21.50
2018-06-23T10:47:43.487Z,22.10
2018-06-23T10:50:11.651Z,22.40
2018-06-23T10:52:39.836Z,23.00
2018-06-23T10:55:08.007Z,23.80
2018-06-23T10:57:36.173Z,24.00
2018-06-23T11:00:04.952Z,23.90
2018-06-23T11:05:01.222Z,23.00
2018-06-23T11:07:29.209Z,22.40
2018-06-23T11:09:57.450Z,21.90
2018-06-23T11:12:25.611Z,21.50
2018-06-23T11:14:53.809Z,21.40
2018-06-23T11:17:22.083Z,22.20
2018-06-23T11:19:50.250Z,23.40
2018-06-23T11:22:18.407Z,24.00
2018-06-23T11:24:46.603Z,24.60
2018-06-23T11:27:14.797Z,24.10
2018-06-23T11:29:43.319Z,23.90
2018-06-23T11:34:39.432Z,23.00
2018-06-23T11:37:07.680Z,22.30
2018-06-23T11:39:36.052Z,21.90
2018-06-23T11:42:04.218Z,21.40
2018-06-23T11:44:32.377Z,21.70
2018-06-23T11:47:00.680Z,22.50
2018-06-23T11:49:28.893Z,23.40
2018-06-23T11:51:57.070Z,24.40
2018-06-23T11:54:25.671Z,25.10
2018-06-23T11:56:53.927Z,25.70
2018-06-23T11:59:22.186Z,26.50
2018-06-23T12:01:50.471Z,26.50
2018-06-23T12:04:22.455Z,25.90
2018-06-23T12:06:50.860Z,25.30
2018-06-23T12:09:19.675Z,25.50
2018-06-23T12:11:47.903Z,26.00
2018-06-23T12:14:16.075Z,26.40
2018-06-23T12:16:44.347Z,26.80
2018-06-23T12:19:12.527Z,26.80
2018-06-23T12:21:40.856Z,25.80
2018-06-23T12:24:09.231Z,26.10
2018-06-23T12:29:05.747Z,25.60
2018-06-23T12:31:33.919Z,25.70
2018-06-23T12:34:02.158Z,26.00
2018-06-23T12:36:42.470Z,26.30
2018-06-23T12:39:11.608Z,26.50
2018-06-23T12:41:40.297Z,26.30
2018-06-23T12:44:09.048Z,26.60
2018-06-23T12:46:37.439Z,27.10
2018-06-23T12:49:05.628Z,27.20
2018-06-23T12:51:34.071Z,27.20
2018-06-23T12:54:02.256Z,27.60
2018-06-23T12:56:30.488Z,27.40
2018-06-23T12:58:58.703Z,27.60
2018-06-23T13:01:26.947Z,27.20
2018-06-23T13:03:55.124Z,27.00
2018-06-23T13:06:23.298Z,26.90
2018-06-23T13:08:51.504Z,26.40
2018-06-23T13:11:19.664Z,25.70
2018-06-23T13:16:15.852Z,25.30
2018-06-23T13:18:44.222Z,24.90
2018-06-23T13:21:12.377Z,25.30
2018-06-23T13:23:40.549Z,25.90
2018-06-23T13:26:08.743Z,26.30
2018-06-23T13:28:37.171Z,26.60
2018-06-23T13:31:05.380Z,26.80
2018-06-23T13:33:33.556Z,27.10
2018-06-23T13:36:01.722Z,27.80
2018-06-23T13:38:29.908Z,28.50
2018-06-23T13:41:01.921Z,29.10
2018-06-23T13:43:30.103Z,28.70
2018-06-23T13:48:30.473Z,29.20
2018-06-23T13:51:02.324Z,28.80
2018-06-23T13:53:30.477Z,28.40
2018-06-23T13:55:58.654Z,28.50
2018-06-23T13:58:27.037Z,29.20
2018-06-23T14:00:55.324Z,29.40
2018-06-23T14:03:24.066Z,29.70
2018-06-23T14:05:52.225Z,29.90
2018-06-23T14:08:20.465Z,29.40
2018-06-23T14:10:48.692Z,29.10
2018-06-23T14:13:16.896Z,29.20
2018-06-23T14:15:45.112Z,29.10
2018-06-23T14:18:13.344Z,29.70
2018-06-23T14:20:41.500Z,29.90
2018-06-23T14:23:09.822Z,30.20
2018-06-23T14:25:41.020Z,29.90
2018-06-23T14:28:09.233Z,29.90
2018-06-23T14:30:37.588Z,30.20
2018-06-23T14:33:05.800Z,29.50
2018-06-23T14:35:33.992Z,29.50
2018-06-23T14:38:02.167Z,29.70
2018-06-23T14:40:30.347Z,29.80
2018-06-23T14:42:58.536Z,29.80
2018-06-23T14:45:26.715Z,30.10
2018-06-23T14:47:54.937Z,30.40
2018-06-23T14:50:23.130Z,30.70
2018-06-23T14:55:19.296Z,31.20
2018-06-23T14:57:47.464Z,31.60
2018-06-23T15:00:16.313Z,32.00
2018-06-23T15:02:44.564Z,32.10
2018-06-23T15:05:12.848Z,32.40
2018-06-23T15:07:41.080Z,32.40
2018-06-23T15:10:20.642Z,31.90
2018-06-23T15:13:00.264Z,31.70
2018-06-23T15:15:28.593Z,31.50
2018-06-23T15:17:56.921Z,31.20
2018-06-23T15:20:25.204Z,31.50
2018-06-23T15:22:53.749Z,31.10
2018-06-23T15:25:21.962Z,30.80
2018-06-23T15:27:50.162Z,30.30
2018-06-23T15:30:18.515Z,30.00
2018-06-23T15:32:46.700Z,30.00
2018-06-23T15:35:14.895Z,29.90
2018-06-23T15:37:43.187Z,29.80
2018-06-23T15:40:11.393Z,29.80
2018-06-23T15:42:39.648Z,29.80
2018-06-23T15:45:07.869Z,29.50
2018-06-23T15:47:45.059Z,29.40
2018-06-23T15:50:37.745Z,29.60
2018-06-23T15:56:04.401Z,30.30
2018-06-23T15:58:32.719Z,30.40
2018-06-23T16:01:00.927Z,30.90
2018-06-23T16:03:29.224Z,31.10
2018-06-23T16:05:57.517Z,30.50
2018-06-23T16:08:25.857Z,30.30
2018-06-23T16:10:54.269Z,29.80
2018-06-23T16:13:22.676Z,29.90
2018-06-23T16:15:50.891Z,30.50
2018-06-23T16:18:19.167Z,30.50
2018-06-23T16:20:47.496Z,30.40
2018-06-23T16:23:15.850Z,30.30
2018-06-23T16:25:43.882Z,30.00
2018-06-23T16:28:12.219Z,29.40
2018-06-23T16:30:40.481Z,28.70
2018-06-23T16:33:08.698Z,28.00
2018-06-23T16:35:36.909Z,27.20
2018-06-23T16:38:05.315Z,26.40
2018-06-23T16:40:33.505Z,25.80
2018-06-23T16:45:29.715Z,24.90
2018-06-23T16:47:57.984Z,25.00
2018-06-23T16:50:26.179Z,24.90
2018-06-23T16:52:54.405Z,25.30
2018-06-23T16:55:22.619Z,25.80
2018-06-23T16:57:50.772Z,26.40
2018-06-23T17:00:18.972Z,26.90
2018-06-23T17:02:47.168Z,27.50
2018-06-23T17:05:15.331Z,28.00
2018-06-23T17:07:43.493Z,28.20
2018-06-23T17:12:39.655Z,28.50
2018-06-23T17:15:07.842Z,28.60
2018-06-23T17:17:36.080Z,28.00
2018-06-23T17:20:04.291Z,26.80
2018-06-23T17:22:32.449Z,25.70
2018-06-23T17:25:00.616Z,24.50
2018-06-23T17:27:28.812Z,23.60
2018-06-23T17:29:56.963Z,23.10
2018-06-23T17:32:25.127Z,22.70
2018-06-23T17:34:53.808Z,22.60
2018-06-23T17:37:22.081Z,22.40
2018-06-23T17:42:18.176Z,21.90
2018-06-23T17:44:46.337Z,21.80
2018-06-23T17:47:14.516Z,21.70
2018-06-23T17:49:42.785Z,21.60
2018-06-23T17:52:11.009Z,21.50
2018-06-23T17:54:39.180Z,21.40
2018-06-23T17:57:07.373Z,21.40
2018-06-23T17:59:35.564Z,21.20
2018-06-23T18:02:03.793Z,21.00
2018-06-23T18:04:31.935Z,20.80
2018-06-23T18:07:00.142Z,20.60
2018-06-23T18:09:28.295Z,20.30
2018-06-23T18:14:24.414Z,19.80
2018-06-23T18:16:52.670Z,19.50
2018-06-23T18:19:20.856Z,19.20
2018-06-23T18:21:49.028Z,19.00
2018-06-23T18:24:17.248Z,19.00
2018-06-23T18:26:45.443Z,18.80
2018-06-23T18:29:13.706Z,18.70
2018-06-23T18:31:41.898Z,18.60
2018-06-23T18:34:10.089Z,18.40
2018-06-23T18:36:38.237Z,18.20
2018-06-23T18:39:08.392Z,18.10
2018-06-23T18:41:36.550Z,18.00
2018-06-23T18:44:04.744Z,17.90
2018-06-23T18:46:33.016Z,17.90
2018-06-23T18:49:01.163Z,17.80
2018-06-23T18:51:29.313Z,17.70
2018-06-23T18:53:57.473Z,17.70
2018-06-23T18:56:25.687Z,17.70
2018-06-23T18:58:53.981Z,17.60
2018-06-23T19:01:22.139Z,17.50
2018-06-23T19:03:50.415Z,17.40
2018-06-23T19:06:18.662Z,17.30
2018-06-23T19:08:46.906Z,17.20
2018-06-23T19:11:15.116Z,17.10
2018-06-23T19:13:43.272Z,17.00
2018-06-23T19:16:11.473Z,16.80
2018-06-23T19:18:39.689Z,16.70
2018-06-23T19:21:07.908Z,16.60
2018-06-23T19:23:36.086Z,16.50
2018-06-23T19:26:04.236Z,16.40
2018-06-23T19:28:32.420Z,16.30
2018-06-23T19:31:00.583Z,16.20
2018-06-23T19:33:28.725Z,16.10
2018-06-23T19:35:56.896Z,16.00
2018-06-23T19:38:25.201Z,16.00
2018-06-23T19:40:53.387Z,15.90
2018-06-23T19:45:49.491Z,15.70
2018-06-23T19:48:17.662Z,15.70
2018-06-23T19:50:45.844Z,15.70
2018-06-23T19:53:14.156Z,15.70
2018-06-23T19:55:42.319Z,15.70
2018-06-23T19:58:10.499Z,15.60
2018-06-23T20:00:38.704Z,15.50
2018-06-23T20:03:06.841Z,15.40
2018-06-23T20:05:35.012Z,15.30
2018-06-23T20:08:03.230Z,15.30
2018-06-23T20:10:31.400Z,15.20
2018-06-23T20:12:59.666Z,15.10
2018-06-23T20:15:27.948Z,15.00
2018-06-23T20:17:56.160Z,15.00
2018-06-23T20:20:24.384Z,14.90
2018-06-23T20:22:52.551Z,14.80
2018-06-23T20:25:20.721Z,14.70
2018-06-23T20:27:48.867Z,14.60
2018-06-23T20:30:17.052Z,14.60
2018-06-23T20:32:45.239Z,14.60
2018-06-23T20:35:13.410Z,14.50
2018-06-23T20:37:41.562Z,14.40
2018-06-23T20:40:09.747Z,14.40
2018-06-23T20:42:37.912Z,14.30
2018-06-23T20:45:06.419Z,14.30
2018-06-23T20:47:34.593Z,14.30
2018-06-23T20:50:02.723Z,14.30
2018-06-23T20:52:30.980Z,14.10
2018-06-23T20:54:59.145Z,14.00
2018-06-23T20:57:27.311Z,14.00
2018-06-23T20:59:55.479Z,13.90
2018-06-23T21:02:23.653Z,13.90
2018-06-23T21:04:51.811Z,13.80
2018-06-23T21:07:20.063Z,13.80
2018-06-23T21:09:48.182Z,13.70
2018-06-23T21:12:16.601Z,13.70
2018-06-23T21:14:44.739Z,13.80
2018-06-23T21:17:12.924Z,13.90
2018-06-23T21:19:41.352Z,13.80
2018-06-23T21:22:09.502Z,13.80
2018-06-23T21:24:37.656Z,13.70
2018-06-23T21:27:05.804Z,13.60
2018-06-23T21:29:33.966Z,13.60
2018-06-23T21:32:02.122Z,13.50
2018-06-23T21:34:30.269Z,13.50
2018-06-23T21:36:58.419Z,13.40
2018-06-23T21:39:26.575Z,13.40
2018-06-23T21:42:03.717Z,13.30
2018-06-23T21:44:32.840Z,13.20
2018-06-23T21:49:29.056Z,13.20
2018-06-23T21:51:57.216Z,13.10
2018-06-23T21:54:25.364Z,13.00
2018-06-23T21:56:53.516Z,12.90
2018-06-23T21:59:21.683Z,12.80
2018-06-23T22:01:49.856Z,12.70
2018-06-23T22:04:18.013Z,12.60
2018-06-23T22:06:46.175Z,12.50
2018-06-23T22:09:14.335Z,12.50
2018-06-23T22:11:42.542Z,12.40
2018-06-23T22:14:10.696Z,12.40
2018-06-23T22:16:38.897Z,12.30
2018-06-23T22:19:07.402Z,12.30
2018-06-23T22:21:35.615Z,12.20
2018-06-23T22:24:03.755Z,12.20
2018-06-23T22:26:31.907Z,12.20
2018-06-23T22:29:00.056Z,12.20
2018-06-23T22:31:28.201Z,12.20
2018-06-23T22:33:56.633Z,12.10
2018-06-23T22:36:24.786Z,12.10
2018-06-23T22:38:52.931Z,12.10
2018-06-23T22:41:21.143Z,12.10
2018-06-23T22:43:49.295Z,12.10
2018-06-23T22:46:17.452Z,12.10
2018-06-23T22:48:45.611Z,12.10
2018-06-23T22:51:13.788Z,12.10
2018-06-23T22:53:41.924Z,12.10
2018-06-23T22:56:10.076Z,12.10
2018-06-23T22:58:38.236Z,12.10
2018-06-23T23:01:06.446Z,12.10
2018-06-23T23:03:34.611Z,12.10
2018-06-23T23:06:02.758Z,12.10
2018-06-23T23:08:31.283Z,12.00
2018-06-23T23:10:59.440Z,12.00
2018-06-23T23:13:27.588Z,12.00
2018-06-23T23:15:55.761Z,12.10
2018-06-23T23:18:24.058Z,12.20
2018-06-23T23:20:52.205Z,12.20
2018-06-23T23:23:20.428Z,12.30
2018-06-23T23:25:48.638Z,12.40
2018-06-23T23:28:17.326Z,12.40
2018-06-23T23:30:45.489Z,12.50
2018-06-23T23:33:13.632Z,12.60
2018-06-23T23:38:09.707Z,12.60
2018-06-23T23:40:37.852Z,12.70
2018-06-23T23:43:05.995Z,12.70
2018-06-23T23:45:34.143Z,12.70
2018-06-23T23:48:02.292Z,12.70
2018-06-23T23:50:30.484Z,12.70
2018-06-23T23:52:58.700Z,12.70
2018-06-23T23:55:26.885Z,12.70
2018-06-23T23:57:55.036Z,12.70
